createdAt,value
2022-10-28T00:00:15.147Z,4.15
2022-10-28T00:02:42.117Z,4.40
2022-10-28T00:05:09.807Z,4.80
2022-10-28T00:07:36.640Z,4.40
2022-10-28T00:10:03.786Z,4.85
2022-10-28T00:12:30.650Z,5.13
2022-10-28T00:14:57.607Z,4.63
2022-10-28T00:19:51.266Z,3.80
2022-10-28T00:22:18.043Z,4.80
2022-10-28T00:24:45.146Z,3.97
2022-10-28T00:27:11.940Z,4.68
2022-10-28T00:29:39.037Z,3.80
2022-10-28T00:32:05.976Z,4.43
2022-10-28T00:34:32.899Z,4.70
2022-10-28T00:36:59.687Z,4.30
2022-10-28T00:39:28.253Z,3.97
2022-10-28T00:41:58.709Z,4.80
2022-10-28T00:44:53.376Z,4.43
2022-10-28T00:47:56.065Z,4.25
2022-10-28T00:50:38.410Z,4.38
2022-10-28T00:53:11.172Z,4.55
2022-10-28T00:55:38.440Z,4.38
2022-10-28T00:58:07.883Z,4.00
2022-10-28T01:00:35.025Z,4.35
2022-10-28T01:03:02.415Z,4.35
2022-10-28T01:05:32.732Z,4.70
2022-10-28T01:08:04.326Z,3.75
2022-10-28T01:11:05.741Z,4.50
2022-10-28T01:14:12.952Z,4.93
2022-10-28T01:17:01.368Z,4.15
2022-10-28T01:19:47.159Z,3.90
2022-10-28T01:22:36.776Z,4.15
2022-10-28T01:25:25.428Z,4.30
2022-10-28T01:28:09.503Z,3.80
2022-10-28T01:30:50.997Z,4.20
2022-10-28T01:33:27.101Z,3.80
2022-10-28T01:36:10.138Z,4.28
2022-10-28T01:39:09.907Z,4.32
2022-10-28T01:41:41.958Z,4.40
2022-10-28T01:44:30.169Z,4.25
2022-10-28T01:47:36.384Z,3.80
2022-10-28T01:50:11.705Z,4.10
2022-10-28T01:52:41.497Z,4.63
2022-10-28T01:55:17.561Z,4.35
2022-10-28T01:57:46.449Z,4.35
2022-10-28T02:00:14.002Z,3.63
2022-10-28T02:02:42.811Z,3.80
2022-10-28T02:05:48.091Z,4.20
2022-10-28T02:08:42.299Z,4.20
2022-10-28T02:11:34.063Z,4.68
2022-10-28T02:14:03.779Z,4.03
2022-10-28T02:16:41.809Z,4.28
2022-10-28T02:19:28.277Z,4.20
2022-10-28T02:22:07.148Z,3.92
2022-10-28T02:24:49.502Z,4.30
2022-10-28T02:27:22.327Z,4.43
2022-10-28T02:30:15.426Z,4.18
2022-10-28T02:32:47.057Z,4.75
2022-10-28T02:35:29.789Z,4.18
2022-10-28T02:38:00.117Z,4.60
2022-10-28T02:40:30.157Z,4.43
2022-10-28T02:43:03.982Z,3.85
2022-10-28T02:45:47.099Z,4.57
2022-10-28T02:48:22.812Z,3.85
2022-10-28T02:51:05.832Z,4.38
2022-10-28T02:53:45.334Z,4.72
2022-10-28T02:56:15.993Z,4.55
2022-10-28T02:58:44.396Z,4.53
2022-10-28T03:01:11.315Z,4.72
2022-10-28T03:03:38.276Z,4.30
2022-10-28T03:06:06.934Z,4.53
2022-10-28T03:08:34.015Z,4.32
2022-10-28T03:11:00.867Z,4.07
2022-10-28T03:13:27.887Z,4.93
2022-10-28T03:15:55.062Z,4.43
2022-10-28T03:18:22.027Z,3.80
2022-10-28T03:20:49.093Z,4.07
2022-10-28T03:23:16.075Z,4.68
2022-10-28T03:25:42.928Z,4.18
2022-10-28T03:28:09.675Z,4.82
2022-10-28T03:30:36.456Z,3.50
2022-10-28T03:33:03.249Z,4.47
2022-10-28T03:35:30.294Z,5.28
2022-10-28T03:37:57.055Z,4.68
2022-10-28T03:40:24.071Z,4.45
2022-10-28T03:42:51.126Z,4.03
2022-10-28T03:45:18.034Z,4.00
2022-10-28T03:47:45.154Z,4.88
2022-10-28T03:50:11.961Z,4.47
2022-10-28T03:52:38.904Z,4.30
2022-10-28T03:55:06.361Z,4.57
2022-10-28T03:57:33.773Z,4.32
2022-10-28T04:00:00.540Z,5.07
2022-10-28T04:02:27.801Z,3.88
2022-10-28T04:04:54.698Z,4.15
2022-10-28T04:07:21.585Z,4.25
2022-10-28T04:09:51.456Z,3.97
2022-10-28T04:12:18.955Z,4.80
2022-10-28T04:14:45.928Z,4.82
2022-10-28T04:17:12.779Z,4.50
2022-10-28T04:19:39.846Z,4.20
2022-10-28T04:22:06.728Z,4.45
2022-10-28T04:24:33.595Z,4.80
2022-10-28T04:27:00.479Z,5.35
2022-10-28T04:29:27.439Z,4.80
2022-10-28T04:31:54.490Z,4.63
2022-10-28T04:34:21.453Z,3.90
2022-10-28T04:36:48.381Z,3.92
2022-10-28T04:39:15.320Z,4.90
2022-10-28T04:41:42.074Z,3.88
2022-10-28T04:44:08.949Z,4.07
2022-10-28T04:46:35.930Z,3.72
2022-10-28T04:49:02.872Z,4.68
2022-10-28T04:51:29.805Z,4.20
2022-10-28T04:53:56.867Z,4.55
2022-10-28T04:56:23.645Z,4.43
2022-10-28T04:58:50.362Z,4.05
2022-10-28T05:01:17.729Z,4.60
2022-10-28T05:03:44.709Z,4.32
2022-10-28T05:06:11.456Z,4.60
2022-10-28T05:08:38.351Z,3.88
2022-10-28T05:11:05.447Z,4.70
2022-10-28T05:13:32.603Z,4.50
2022-10-28T05:15:59.606Z,4.53
2022-10-28T05:18:26.549Z,4.63
2022-10-28T05:20:55.163Z,4.82
2022-10-28T05:23:25.864Z,4.00
2022-10-28T05:25:55.570Z,4.63
2022-10-28T05:28:22.780Z,4.60
2022-10-28T05:30:49.657Z,5.32
2022-10-28T05:33:16.527Z,4.88
2022-10-28T05:35:43.295Z,5.65
2022-10-28T05:38:10.455Z,6.55
2022-10-28T05:40:37.804Z,4.97
2022-10-28T05:43:04.853Z,5.13
2022-10-28T05:45:32.436Z,5.30
2022-10-28T05:47:59.409Z,4.60
2022-10-28T05:50:26.703Z,5.00
2022-10-28T05:52:56.174Z,4.93
2022-10-28T05:55:25.765Z,6.22
2022-10-28T05:57:53.798Z,5.53
2022-10-28T06:00:23.965Z,5.72
2022-10-28T06:02:52.132Z,4.57
2022-10-28T06:05:19.714Z,5.72
2022-10-28T06:07:46.463Z,5.03
2022-10-28T06:10:16.614Z,5.00
2022-10-28T06:12:42.146Z,5.88
2022-10-28T06:15:09.300Z,5.38
2022-10-28T06:17:36.454Z,4.90
2022-10-28T06:20:04.026Z,5.47
2022-10-28T06:22:31.236Z,5.50
2022-10-28T06:24:58.164Z,5.22
2022-10-28T06:27:25.006Z,4.63
2022-10-28T06:29:51.952Z,5.18
2022-10-28T06:32:18.695Z,5.03
2022-10-28T06:34:45.468Z,5.38
2022-10-28T06:37:12.880Z,5.00
2022-10-28T06:39:42.124Z,6.72
2022-10-28T06:42:09.292Z,6.65
2022-10-28T06:44:36.328Z,6.25
2022-10-28T06:47:04.724Z,6.15
2022-10-28T06:49:31.892Z,5.65
2022-10-28T06:51:58.719Z,6.32
2022-10-28T06:54:25.788Z,5.80
2022-10-28T06:56:52.637Z,5.65
2022-10-28T06:59:19.718Z,5.78
2022-10-28T07:01:47.389Z,5.32
2022-10-28T07:04:14.589Z,6.57
2022-10-28T07:06:41.779Z,5.20
2022-10-28T07:09:11.148Z,5.28
2022-10-28T07:11:38.083Z,5.38
2022-10-28T07:14:05.017Z,5.35
2022-10-28T07:16:32.173Z,5.28
2022-10-28T07:18:59.249Z,5.38
2022-10-28T07:21:28.623Z,4.97
2022-10-28T07:23:59.055Z,4.75
2022-10-28T07:26:26.778Z,5.05
2022-10-28T07:28:54.741Z,4.38
2022-10-28T07:31:21.729Z,5.55
2022-10-28T07:33:53.390Z,5.00
2022-10-28T07:36:21.003Z,4.68
2022-10-28T07:38:52.637Z,4.95
2022-10-28T07:41:21.602Z,5.45
2022-10-28T07:43:48.847Z,5.72
2022-10-28T07:46:17.258Z,4.85
2022-10-28T07:48:44.599Z,4.93
2022-10-28T07:51:13.951Z,4.55
2022-10-28T07:53:41.623Z,4.78
2022-10-28T07:56:13.624Z,4.78
2022-10-28T07:58:42.083Z,5.40
2022-10-28T08:01:10.967Z,4.60
2022-10-28T08:03:39.038Z,5.25
2022-10-28T08:06:25.939Z,4.43
2022-10-28T08:08:57.249Z,5.03
2022-10-28T08:11:24.926Z,4.93
2022-10-28T08:13:53.198Z,4.07
2022-10-28T08:16:20.231Z,4.85
2022-10-28T08:18:47.109Z,4.70
2022-10-28T08:21:14.779Z,4.68
2022-10-28T08:23:46.589Z,4.38
2022-10-28T08:26:15.451Z,4.38
2022-10-28T08:28:42.608Z,4.75
2022-10-28T08:31:12.250Z,4.68
2022-10-28T08:33:42.384Z,4.68
2022-10-28T08:36:15.329Z,4.97
2022-10-28T08:38:46.302Z,4.07
2022-10-28T08:41:36.856Z,4.18
2022-10-28T08:44:25.380Z,4.03
2022-10-28T08:47:10.830Z,4.72
2022-10-28T08:49:43.337Z,4.75
2022-10-28T08:52:21.841Z,4.30
2022-10-28T08:54:57.628Z,4.78
2022-10-28T08:57:33.620Z,4.82
2022-10-28T09:00:03.308Z,4.47
2022-10-28T09:02:44.913Z,5.05
2022-10-28T09:05:26.262Z,4.53
2022-10-28T09:07:54.308Z,4.22
2022-10-28T09:10:52.280Z,4.40
2022-10-28T09:13:52.521Z,3.65
2022-10-28T09:16:43.732Z,4.18
2022-10-28T09:19:34.006Z,3.83
2022-10-28T09:22:07.058Z,4.00
2022-10-28T09:24:51.905Z,4.07
2022-10-28T09:27:42.063Z,4.18
2022-10-28T09:30:28.333Z,4.70
2022-10-28T09:33:25.866Z,4.05
2022-10-28T09:35:54.402Z,4.45
2022-10-28T09:38:30.519Z,4.30
2022-10-28T09:41:27.323Z,4.28
2022-10-28T09:44:17.520Z,3.88
2022-10-28T09:46:52.516Z,4.18
2022-10-28T09:49:24.168Z,5.10
2022-10-28T09:51:58.518Z,4.07
2022-10-28T09:54:33.394Z,5.05
2022-10-28T09:57:01.081Z,4.60
2022-10-28T09:59:28.957Z,3.92
2022-10-28T10:01:56.020Z,3.92
2022-10-28T10:04:26.179Z,4.05
2022-10-28T10:07:00.892Z,4.22
2022-10-28T10:09:31.097Z,4.40
2022-10-28T10:12:06.819Z,4.35
2022-10-28T10:14:54.379Z,4.45
2022-10-28T10:17:44.241Z,4.60
2022-10-28T10:20:17.444Z,4.72
2022-10-28T10:22:46.803Z,4.15
2022-10-28T10:25:19.765Z,4.43
2022-10-28T10:28:05.411Z,4.47
2022-10-28T10:30:39.562Z,5.13
2022-10-28T10:33:08.064Z,4.32
2022-10-28T10:35:37.650Z,4.35
2022-10-28T10:38:08.106Z,5.32
2022-10-28T10:40:50.756Z,5.13
2022-10-28T10:43:17.596Z,4.95
2022-10-28T10:46:05.783Z,5.70
2022-10-28T10:48:36.490Z,6.28
2022-10-28T10:51:23.577Z,5.18
2022-10-28T10:54:01.160Z,5.13
2022-10-28T10:56:30.910Z,4.75
2022-10-28T10:59:02.944Z,5.00
2022-10-28T11:01:36.094Z,5.80
2022-10-28T11:04:06.381Z,5.38
2022-10-28T11:06:39.534Z,4.72
2022-10-28T11:09:19.679Z,4.60
2022-10-28T11:11:46.778Z,4.75
2022-10-28T11:14:13.861Z,4.68
2022-10-28T11:16:51.102Z,4.72
2022-10-28T11:19:32.196Z,4.57
2022-10-28T11:22:29.561Z,5.35
2022-10-28T11:25:11.395Z,4.03
2022-10-28T11:28:16.019Z,4.13
2022-10-28T11:31:08.409Z,4.00
2022-10-28T11:33:58.017Z,4.35
2022-10-28T11:36:51.668Z,4.78
2022-10-28T11:39:21.483Z,4.18
2022-10-28T11:41:51.415Z,4.45
2022-10-28T11:44:50.742Z,4.32
2022-10-28T11:47:20.372Z,4.68
2022-10-28T11:50:14.588Z,4.22
2022-10-28T11:52:59.403Z,4.75
2022-10-28T11:56:05.002Z,4.10
2022-10-28T11:58:44.591Z,4.68
2022-10-28T12:01:50.654Z,4.50
2022-10-28T12:04:38.020Z,4.20
2022-10-28T12:07:19.991Z,4.18
2022-10-28T12:10:41.165Z,4.07
2022-10-28T12:13:29.817Z,4.13
2022-10-28T12:16:09.913Z,4.70
2022-10-28T12:19:09.114Z,4.53
2022-10-28T12:21:40.706Z,4.32
2022-10-28T12:24:14.882Z,4.50
2022-10-28T12:26:50.415Z,5.15
2022-10-28T12:29:21.246Z,4.60
2022-10-28T12:32:15.263Z,4.40
2022-10-28T12:34:45.094Z,4.60
2022-10-28T12:37:18.362Z,4.40
2022-10-28T12:39:54.873Z,4.38
2022-10-28T12:42:31.233Z,4.85
2022-10-28T12:45:01.838Z,4.43
2022-10-28T12:48:13.925Z,4.65
2022-10-28T12:50:48.667Z,4.75
2022-10-28T12:53:41.131Z,5.13
2022-10-28T12:56:18.417Z,4.70
2022-10-28T12:58:51.341Z,4.38
2022-10-28T13:01:23.061Z,4.22
2022-10-28T13:03:51.079Z,3.88
2022-10-28T13:06:32.459Z,5.50
2022-10-28T13:09:33.324Z,4.47
2022-10-28T13:12:30.288Z,4.20
2022-10-28T13:15:16.574Z,3.85
2022-10-28T13:18:05.063Z,3.78
2022-10-28T13:20:37.812Z,3.65
2022-10-28T13:23:10.314Z,4.03
2022-10-28T13:26:15.010Z,3.40
2022-10-28T13:28:48.957Z,3.38
2022-10-28T13:31:16.694Z,3.70
2022-10-28T13:33:58.965Z,3.50
2022-10-28T13:36:32.204Z,3.50
2022-10-28T13:39:03.376Z,3.72
2022-10-28T13:41:40.976Z,3.53
2022-10-28T13:44:10.150Z,3.95
2022-10-28T13:46:58.801Z,3.90
2022-10-28T13:49:27.505Z,3.58
2022-10-28T13:52:09.480Z,3.63
2022-10-28T13:54:39.211Z,3.45
2022-10-28T13:57:12.500Z,3.10
2022-10-28T13:59:50.458Z,3.90
2022-10-28T14:02:37.381Z,3.22
2022-10-28T14:05:13.783Z,3.50
2022-10-28T14:08:21.967Z,3.30
2022-10-28T14:11:09.186Z,3.53
2022-10-28T14:13:39.903Z,3.60
2022-10-28T14:16:14.599Z,3.78
2022-10-28T14:18:44.085Z,3.67
2022-10-28T14:21:12.068Z,3.13
2022-10-28T14:23:45.224Z,3.60
2022-10-28T14:26:12.218Z,3.38
2022-10-28T14:28:39.131Z,2.90
2022-10-28T14:31:09.254Z,3.33
2022-10-28T14:33:42.974Z,4.03
2022-10-28T14:36:46.261Z,3.28
2022-10-28T14:39:59.949Z,4.15
2022-10-28T14:42:29.802Z,3.45
2022-10-28T14:45:20.548Z,3.58
2022-10-28T14:47:57.983Z,3.55
2022-10-28T14:50:34.366Z,3.97
2022-10-28T14:53:02.121Z,3.15
2022-10-28T14:55:31.997Z,3.60
2022-10-28T14:58:21.776Z,3.60
2022-10-28T15:01:26.993Z,3.45
2022-10-28T15:04:01.252Z,3.80
2022-10-28T15:06:30.538Z,3.33
2022-10-28T15:09:10.681Z,3.83
2022-10-28T15:11:41.299Z,3.55
2022-10-28T15:14:45.742Z,4.15
2022-10-28T15:17:21.630Z,3.33
2022-10-28T15:20:00.531Z,3.60
2022-10-28T15:22:30.898Z,3.47
2022-10-28T15:25:03.164Z,4.25
2022-10-28T15:27:33.354Z,3.40
2022-10-28T15:30:00.523Z,3.55
2022-10-28T15:32:35.658Z,3.20
2022-10-28T15:35:27.039Z,3.70
2022-10-28T15:37:55.164Z,3.28
2022-10-28T15:40:34.494Z,3.25
2022-10-28T15:43:06.763Z,3.42
2022-10-28T15:45:42.098Z,2.92
2022-10-28T15:48:14.981Z,3.30
2022-10-28T15:50:42.356Z,3.20
2022-10-28T15:53:12.570Z,3.50
2022-10-28T15:56:02.825Z,3.25
2022-10-28T15:58:28.047Z,3.35
2022-10-28T16:00:56.775Z,2.90
2022-10-28T16:03:44.358Z,3.20
2022-10-28T16:06:34.943Z,3.42
2022-10-28T16:09:25.089Z,6.13
2022-10-28T16:11:57.551Z,2.88
2022-10-28T16:14:37.639Z,2.95
2022-10-28T16:17:12.598Z,3.20
2022-10-28T16:19:57.106Z,2.97
2022-10-28T16:22:26.274Z,2.83
2022-10-28T16:24:55.166Z,3.00
2022-10-28T16:27:27.062Z,2.90
2022-10-28T16:29:57.252Z,3.13
2022-10-28T16:32:35.424Z,2.92
2022-10-28T16:35:03.203Z,3.58
2022-10-28T16:37:32.838Z,3.92
2022-10-28T16:40:00.037Z,3.50
2022-10-28T16:42:27.770Z,3.08
2022-10-28T16:44:54.693Z,3.75
2022-10-28T16:47:24.469Z,3.08
2022-10-28T16:49:54.479Z,3.70
2022-10-28T16:52:30.053Z,4.40
2022-10-28T16:54:58.662Z,3.47
2022-10-28T16:57:26.393Z,4.20
2022-10-28T16:59:53.922Z,3.80
2022-10-28T17:02:35.343Z,3.67
2022-10-28T17:05:05.176Z,4.03
2022-10-28T17:07:32.355Z,3.80
2022-10-28T17:09:59.353Z,3.95
2022-10-28T17:12:27.472Z,4.20
2022-10-28T17:14:54.349Z,4.53
2022-10-28T17:17:21.169Z,3.17
2022-10-28T17:19:48.368Z,3.70
2022-10-28T17:22:15.263Z,4.80
2022-10-28T17:24:42.010Z,3.55
2022-10-28T17:27:09.028Z,4.95
2022-10-28T17:29:36.180Z,4.00
2022-10-28T17:32:03.305Z,4.72
2022-10-28T17:34:30.351Z,3.78
2022-10-28T17:36:57.258Z,4.78
2022-10-28T17:39:26.407Z,4.05
2022-10-28T17:41:54.232Z,4.07
2022-10-28T17:44:21.661Z,5.00
2022-10-28T17:46:49.184Z,4.70
2022-10-28T17:49:16.054Z,3.97
2022-10-28T17:51:44.060Z,3.78
2022-10-28T17:54:11.596Z,4.80
2022-10-28T17:56:40.153Z,4.40
2022-10-28T17:59:07.268Z,4.60
2022-10-28T18:01:36.008Z,4.18
2022-10-28T18:04:04.717Z,4.05
2022-10-28T18:06:32.133Z,4.10
2022-10-28T18:08:59.071Z,6.15
2022-10-28T18:11:27.469Z,4.22
2022-10-28T18:13:56.322Z,4.35
2022-10-28T18:16:27.726Z,4.05
2022-10-28T18:18:55.796Z,4.07
2022-10-28T18:21:24.732Z,4.18
2022-10-28T18:24:03.931Z,5.35
2022-10-28T18:26:32.880Z,5.57
2022-10-28T18:29:04.217Z,5.30
2022-10-28T18:31:33.168Z,4.93
2022-10-28T18:34:01.330Z,4.40
2022-10-28T18:36:34.154Z,5.05
2022-10-28T18:39:03.461Z,4.65
2022-10-28T18:41:31.515Z,4.40
2022-10-28T18:44:04.716Z,5.10
2022-10-28T18:46:37.806Z,4.38
2022-10-28T18:49:05.544Z,4.78
2022-10-28T18:51:33.574Z,4.22
2022-10-28T18:54:00.897Z,4.88
2022-10-28T18:56:29.676Z,4.75
2022-10-28T18:58:57.974Z,5.63
2022-10-28T19:01:28.130Z,7.13
2022-10-28T19:03:58.529Z,6.60
2022-10-28T19:06:29.835Z,5.70
2022-10-28T19:08:58.982Z,6.38
2022-10-28T19:11:30.266Z,5.57
2022-10-28T19:14:02.918Z,5.95
2022-10-28T19:16:33.393Z,5.72
2022-10-28T19:19:02.402Z,6.38
2022-10-28T19:21:30.245Z,6.78
2022-10-28T19:23:57.303Z,6.53
2022-10-28T19:26:24.642Z,6.95
2022-10-28T19:28:52.314Z,5.78
2022-10-28T19:31:22.134Z,5.60
2022-10-28T19:33:49.500Z,5.32
2022-10-28T19:36:30.462Z,5.10
2022-10-28T19:38:58.752Z,5.63
2022-10-28T19:41:28.271Z,5.20
2022-10-28T19:44:04.930Z,5.15
2022-10-28T19:46:36.013Z,5.78
2022-10-28T19:49:05.832Z,5.68
2022-10-28T19:51:39.759Z,4.93
2022-10-28T19:54:12.444Z,4.95
2022-10-28T19:56:40.092Z,4.88
2022-10-28T19:59:07.392Z,5.50
2022-10-28T20:01:36.860Z,5.15
2022-10-28T20:04:05.461Z,5.85
2022-10-28T20:06:35.527Z,4.78
2022-10-28T20:09:03.565Z,5.40
2022-10-28T20:11:33.138Z,5.68
2022-10-28T20:14:03.322Z,6.22
2022-10-28T20:16:31.406Z,6.45
2022-10-28T20:18:58.866Z,5.95
2022-10-28T20:21:28.151Z,6.75
2022-10-28T20:23:56.502Z,6.22
2022-10-28T20:26:25.886Z,5.75
2022-10-28T20:28:52.961Z,5.72
2022-10-28T20:31:22.612Z,5.90
2022-10-28T20:33:58.582Z,6.55
2022-10-28T20:36:26.508Z,6.10
2022-10-28T20:39:15.432Z,6.38
2022-10-28T20:41:44.098Z,6.75
2022-10-28T20:44:11.699Z,6.78
2022-10-28T20:46:39.047Z,5.93
2022-10-28T20:49:09.025Z,6.63
2022-10-28T20:51:36.180Z,6.95
2022-10-28T20:54:03.378Z,6.60
2022-10-28T20:56:33.173Z,6.22
2022-10-28T20:59:00.761Z,6.50
2022-10-28T21:01:31.855Z,6.93
2022-10-28T21:04:02.075Z,5.60
2022-10-28T21:06:30.347Z,6.75
2022-10-28T21:08:57.898Z,6.43
2022-10-28T21:11:27.408Z,6.57
2022-10-28T21:14:00.039Z,7.32
2022-10-28T21:16:27.909Z,6.93
2022-10-28T21:18:54.924Z,6.40
2022-10-28T21:21:23.302Z,6.18
2022-10-28T21:23:50.360Z,7.00
2022-10-28T21:26:17.521Z,6.35
2022-10-28T21:28:45.325Z,6.57
2022-10-28T21:31:17.402Z,6.45
2022-10-28T21:33:44.991Z,6.28
2022-10-28T21:36:16.869Z,5.63
2022-10-28T21:38:44.476Z,6.13
2022-10-28T21:41:18.812Z,6.13
2022-10-28T21:43:49.409Z,6.90
2022-10-28T21:46:17.545Z,5.88
2022-10-28T21:48:45.069Z,5.93
2022-10-28T21:51:15.123Z,5.80
2022-10-28T21:53:43.514Z,5.40
2022-10-28T21:56:19.288Z,5.50
2022-10-28T21:58:48.284Z,5.20
2022-10-28T22:01:18.309Z,5.80
2022-10-28T22:03:45.323Z,5.60
2022-10-28T22:06:12.271Z,5.88
2022-10-28T22:08:39.062Z,5.22
2022-10-28T22:11:12.364Z,6.28
2022-10-28T22:13:39.896Z,5.70
2022-10-28T22:16:10.364Z,5.05
2022-10-28T22:18:38.158Z,5.97
2022-10-28T22:21:11.577Z,6.35
2022-10-28T22:23:38.940Z,5.47
2022-10-28T22:26:11.042Z,5.93
2022-10-28T22:28:38.590Z,5.78
2022-10-28T22:31:08.601Z,5.93
2022-10-28T22:33:36.489Z,6.07
2022-10-28T22:36:06.789Z,5.85
2022-10-28T22:38:34.459Z,5.90
2022-10-28T22:41:15.142Z,5.32
2022-10-28T22:43:44.206Z,6.00
2022-10-28T22:46:12.270Z,5.95
2022-10-28T22:48:39.498Z,6.38
2022-10-28T22:51:06.578Z,5.78
2022-10-28T22:53:33.421Z,5.88
2022-10-28T22:56:00.629Z,5.30
2022-10-28T22:58:28.680Z,5.43
2022-10-28T23:01:09.465Z,4.43
2022-10-28T23:03:38.785Z,5.05
2022-10-28T23:06:06.285Z,5.15
2022-10-28T23:08:34.464Z,5.18
2022-10-28T23:11:01.603Z,5.30
2022-10-28T23:13:28.804Z,5.22
2022-10-28T23:15:55.966Z,4.90
2022-10-28T23:18:28.108Z,5.18
2022-10-28T23:20:55.034Z,4.68
2022-10-28T23:23:22.163Z,5.65
2022-10-28T23:25:54.218Z,5.53
2022-10-28T23:28:21.735Z,5.75
2022-10-28T23:30:48.630Z,5.07
2022-10-28T23:33:15.569Z,4.75
2022-10-28T23:35:43.081Z,5.13
2022-10-28T23:38:16.681Z,4.18
2022-10-28T23:40:43.838Z,4.28
2022-10-28T23:43:10.934Z,5.38
2022-10-28T23:45:37.895Z,4.68
2022-10-28T23:48:04.998Z,4.97
2022-10-28T23:50:31.835Z,6.57
2022-10-28T23:52:59.143Z,5.72
2022-10-28T23:55:26.303Z,5.70
2022-10-28T23:57:57.045Z,6.07
